Time;durP1;ratioP1;P1;durP2;ratioP2;P2;SDS_P1;SDS_P2;PMS_P1;PMS_P2;Temp;Humidity;BMP_temperature;BMP_pressure;BME280_temperature;BME280_humidity;BME280_pressure;Samples;Min_cycle;Max_cycle;Signal;HPM_P1;HPM_P2
2022/05/21 00:01:32;;;;;;;4.00;1.60;;;17.90;99.90;;;;;;5073403;28;20292;-70
2022/05/21 00:03:57;;;;;;;6.35;1.35;;;17.80;99.90;;;;;;5073335;28;20232;-71
2022/05/21 00:06:23;;;;;;;1.42;1.27;;;17.70;99.90;;;;;;5073285;28;20206;-71
2022/05/21 00:08:48;;;;;;;4.88;1.52;;;17.70;99.90;;;;;;5090938;28;20556;-71
2022/05/21 00:11:14;;;;;;;1.35;1.23;;;17.70;99.90;;;;;;5092142;28;20175;-71
2022/05/21 00:13:39;;;;;;;3.67;1.65;;;17.60;99.90;;;;;;5091382;22;20207;-75
2022/05/21 00:16:05;;;;;;;1.55;1.35;;;17.50;99.90;;;;;;5132535;27;20204;-74
2022/05/21 00:18:31;;;;;;;2.08;1.55;;;17.50;99.90;;;;;;5131464;27;20245;-74
2022/05/21 00:20:57;;;;;;;3.58;1.20;;;17.50;99.90;;;;;;5114000;27;20688;-73
2022/05/21 00:23:26;;;;;;;2.85;1.30;;;17.60;99.90;;;;;;5113818;27;20176;-74
2022/05/21 00:26:02;;;;;;;2.35;1.48;;;17.60;99.90;;;;;;5132708;27;20278;-74
2022/05/21 00:28:28;;;;;;;2.45;1.40;;;17.60;99.90;;;;;;5131364;27;20296;-74
2022/05/21 00:30:54;;;;;;;1.75;1.58;;;17.60;99.90;;;;;;5132382;27;20215;-75
2022/05/21 00:33:20;;;;;;;3.22;1.48;;;17.60;99.90;;;;;;5113802;27;20673;-74
2022/05/21 00:35:48;;;;;;;1.33;1.10;;;17.50;99.90;;;;;;5115176;27;20213;-74
2022/05/21 00:38:14;;;;;;;1.73;1.55;;;17.50;99.90;;;;;;5113528;27;20172;-73
2022/05/21 00:40:40;;;;;;;2.42;1.63;;;17.40;99.90;;;;;;5131557;27;20209;-75
2022/05/21 00:43:06;;;;;;;1.90;1.50;;;17.40;99.90;;;;;;5132088;27;20197;-73
2022/05/21 00:45:32;;;;;;;1.70;1.60;;;17.40;99.90;;;;;;5131852;27;20212;-74
2022/05/21 00:47:58;;;;;;;2.78;1.40;;;17.50;99.90;;;;;;5113314;28;20262;-74
2022/05/21 00:50:28;;;;;;;1.92;1.70;;;17.50;99.90;;;;;;5111576;28;20177;-73
2022/05/21 00:52:54;;;;;;;5.20;1.60;;;17.50;99.90;;;;;;5132393;27;20591;-74
2022/05/21 00:55:23;;;;;;;4.60;1.40;;;17.40;99.90;;;;;;5131874;27;20292;-72
2022/05/21 00:59:47;;;;;;;4.20;1.85;;;17.30;99.90;;;;;;5131649;27;20201;-73
2022/05/21 01:00:40;;;;;;;4.78;1.98;;;17.30;99.90;;;;;;5131647;28;20229;-73
2022/05/21 01:03:06;;;;;;;5.90;1.60;;;17.10;99.90;;;;;;5131865;28;20251;-74
2022/05/21 01:05:32;;;;;;;3.72;1.95;;;17.10;99.90;;;;;;5112694;28;20711;-73
2022/05/21 01:08:00;;;;;;;3.75;1.70;;;17.10;99.90;;;;;;5132141;28;20173;-73
2022/05/21 01:10:30;;;;;;;5.63;2.00;;;17.10;99.90;;;;;;5113577;28;20681;-73
2022/05/21 01:12:57;;;;;;;3.25;2.05;;;16.90;99.90;;;;;;5132060;28;20580;-73
2022/05/21 01:15:29;;;;;;;3.50;1.50;;;17.00;99.90;;;;;;5113559;28;20213;-75
2022/05/21 01:17:55;;;;;;;4.45;1.70;;;16.90;99.90;;;;;;5131624;27;20329;-73
2022/05/21 01:20:33;;;;;;;4.45;1.80;;;16.80;99.90;;;;;;5129786;27;20201;-74
2022/05/21 01:22:58;;;;;;;2.72;2.05;;;16.90;99.90;;;;;;5117840;28;20190;-73
2022/05/21 01:25:29;;;;;;;4.97;1.80;;;16.80;99.90;;;;;;5131515;27;20201;-73
2022/05/21 01:27:54;;;;;;;1.20;1.08;;;16.80;99.90;;;;;;5130120;28;20228;-73
2022/05/21 01:30:29;;;;;;;3.10;1.50;;;16.80;99.90;;;;;;5131136;28;20224;-73
2022/05/21 01:32:54;;;;;;;3.80;1.60;;;16.80;99.90;;;;;;5115968;28;20287;-73
2022/05/21 01:35:20;;;;;;;3.67;1.35;;;16.70;99.90;;;;;;5131622;28;20300;-74
2022/05/21 01:37:46;;;;;;;2.45;1.60;;;16.70;99.90;;;;;;5113112;28;20184;-74
2022/05/21 01:40:12;;;;;;;1.77;1.42;;;16.60;99.90;;;;;;5131205;27;20212;-74
2022/05/21 01:42:39;;;;;;;2.80;1.70;;;16.50;99.90;;;;;;5130024;28;20209;-74
2022/05/21 01:45:05;;;;;;;3.85;2.13;;;16.40;99.90;;;;;;5130133;28;20201;-74
2022/05/21 01:47:31;;;;;;;2.05;1.85;;;16.40;99.90;;;;;;5131366;27;20688;-74
2022/05/21 01:49:57;;;;;;;4.80;1.83;;;16.40;99.90;;;;;;5129851;28;20181;-74
2022/05/21 01:52:23;;;;;;;1.95;1.67;;;16.30;99.90;;;;;;5114826;27;20201;-74
2022/05/21 01:54:48;;;;;;;6.07;1.92;;;16.40;99.90;;;;;;5133916;27;20219;-74
2022/05/21 01:57:14;;;;;;;7.63;1.83;;;16.30;99.90;;;;;;5135372;27;20720;-73
2022/05/21 01:59:40;;;;;;;3.15;2.05;;;16.30;99.90;;;;;;5134356;27;20212;-74
2022/05/21 02:02:06;;;;;;;2.45;1.67;;;16.30;99.90;;;;;;5135593;27;20184;-74
2022/05/21 02:04:32;;;;;;;4.00;1.67;;;16.30;99.90;;;;;;5134861;27;20208;-74
2022/05/21 02:06:57;;;;;;;4.53;1.77;;;16.30;99.90;;;;;;5135212;27;20200;-73
2022/05/21 02:09:23;;;;;;;2.55;1.40;;;16.20;99.90;;;;;;5134231;27;20680;-74
2022/05/21 02:11:48;;;;;;;7.07;2.15;;;16.20;99.90;;;;;;5134935;27;20570;-73
2022/05/21 02:14:14;;;;;;;5.28;2.17;;;16.10;99.90;;;;;;5135260;27;20209;-73
2022/05/21 02:16:40;;;;;;;3.10;1.73;;;16.20;99.90;;;;;;5134701;27;20250;-74
2022/05/21 02:19:06;;;;;;;2.65;2.42;;;16.30;99.90;;;;;;5132649;27;20571;-74
2022/05/21 02:21:34;;;;;;;3.28;2.13;;;16.20;99.90;;;;;;5133229;27;20243;-73
2022/05/21 02:24:00;;;;;;;4.68;2.33;;;16.10;99.90;;;;;;5133278;27;20582;-74
2022/05/21 02:26:25;;;;;;;3.42;1.92;;;16.10;99.90;;;;;;5133354;27;20173;-74
2022/05/21 02:28:51;;;;;;;3.35;1.55;;;16.10;99.90;;;;;;5122373;27;20497;-74
2022/05/21 02:31:17;;;;;;;2.45;1.90;;;16.10;99.90;;;;;;5108180;27;20208;-74
2022/05/21 02:33:43;;;;;;;5.03;1.95;;;16.20;99.90;;;;;;5122449;27;20202;-74
2022/05/21 02:36:09;;;;;;;1.92;1.83;;;16.20;99.90;;;;;;5113763;28;20693;-74
2022/05/21 02:41:19;;;;;;;2.25;1.88;;;16.30;99.90;;;;;;5114099;28;20204;-74
2022/05/21 02:43:46;;;;;;;4.18;2.17;;;16.30;99.90;;;;;;5095782;27;20658;-74
2022/05/21 02:46:12;;;;;;;3.78;1.98;;;16.30;99.90;;;;;;5113958;28;20208;-74
2022/05/21 02:48:38;;;;;;;5.97;2.35;;;16.20;99.90;;;;;;5094352;28;20206;-74
2022/05/21 02:51:04;;;;;;;2.88;1.80;;;16.10;99.90;;;;;;5113705;28;20216;-73
2022/05/21 02:53:29;;;;;;;4.28;2.00;;;16.10;99.90;;;;;;5113046;28;20527;-73
2022/05/21 02:55:55;;;;;;;6.63;2.45;;;16.00;99.90;;;;;;5095645;28;20181;-75
2022/05/21 02:58:21;;;;;;;2.45;2.08;;;16.00;99.90;;;;;;5094378;28;20292;-75
2022/05/21 03:00:47;;;;;;;5.00;2.13;;;16.00;99.90;;;;;;5091426;28;20224;-74
2022/05/21 03:03:13;;;;;;;3.80;1.75;;;16.00;99.90;;;;;;5112093;28;20639;-74
2022/05/21 03:05:39;;;;;;;3.45;1.98;;;16.00;99.90;;;;;;5115449;27;20213;-74
2022/05/21 03:10:20;;;;;;;2.15;1.95;;;15.90;99.90;;;;;;5100422;28;20172;-74
2022/05/21 03:10:52;;;;;;;3.95;2.22;;;15.90;99.90;;;;;;5105739;28;20579;-74
2022/05/21 03:13:18;;;;;;;4.88;2.28;;;15.80;99.90;;;;;;5112937;28;20209;-75
2022/05/21 03:15:44;;;;;;;4.18;2.50;;;15.80;99.90;;;;;;5112754;28;20278;-74
2022/05/21 03:18:11;;;;;;;2.63;2.17;;;15.80;99.90;;;;;;5112299;28;20262;-74
2022/05/21 03:20:37;;;;;;;2.50;2.22;;;15.50;99.90;;;;;;5112649;28;20246;-74
2022/05/21 03:23:03;;;;;;;2.58;2.05;;;15.60;99.90;;;;;;5113380;28;20173;-74
2022/05/21 03:25:29;;;;;;;3.30;2.00;;;15.60;99.90;;;;;;5112534;28;20236;-73
2022/05/21 03:27:55;;;;;;;2.80;1.95;;;15.60;99.90;;;;;;5112374;28;20623;-73
2022/05/21 03:30:23;;;;;;;3.95;2.63;;;15.50;99.90;;;;;;5108542;27;20281;-75
2022/05/21 03:32:49;;;;;;;4.13;2.30;;;15.40;99.90;;;;;;5094278;28;20209;-73
2022/05/21 03:35:16;;;;;;;4.35;2.05;;;15.40;99.90;;;;;;5113011;28;20205;-74
2022/05/21 03:37:42;;;;;;;3.05;1.98;;;15.40;99.90;;;;;;5112282;27;20314;-73
2022/05/21 03:40:12;;;;;;;2.10;1.90;;;15.50;99.90;;;;;;5093981;28;20738;-75
2022/05/21 03:42:38;;;;;;;2.70;2.08;;;15.40;99.90;;;;;;5112293;28;20212;-73
2022/05/21 03:45:05;;;;;;;3.45;1.95;;;15.40;99.90;;;;;;5112463;28;20213;-74
2022/05/21 03:47:30;;;;;;;3.58;1.88;;;15.30;99.90;;;;;;5093782;28;20173;-73
2022/05/21 03:49:56;;;;;;;3.35;1.75;;;15.30;99.90;;;;;;5112154;28;20181;-74
2022/05/21 03:52:21;;;;;;;2.65;1.83;;;15.40;99.90;;;;;;5093903;28;20689;-74
2022/05/21 03:54:47;;;;;;;1.70;1.60;;;15.40;99.90;;;;;;5112247;28;20206;-74
2022/05/21 03:57:15;;;;;;;2.97;1.58;;;15.50;99.90;;;;;;5112296;28;20208;-74
2022/05/21 03:59:41;;;;;;;3.05;1.70;;;15.50;99.90;;;;;;5094939;27;20216;-74
2022/05/21 04:02:06;;;;;;;2.92;1.60;;;15.40;99.90;;;;;;5107133;28;20170;-73
2022/05/21 04:04:32;;;;;;;10.02;1.88;;;15.40;99.90;;;;;;5111844;28;20597;-74
2022/05/21 04:06:57;;;;;;;2.08;1.80;;;15.40;99.90;;;;;;5120553;27;20208;-73
2022/05/21 04:09:23;;;;;;;2.63;1.30;;;15.60;99.90;;;;;;5111198;28;20300;-73
2022/05/21 04:11:48;;;;;;;2.63;1.45;;;15.90;99.90;;;;;;5112051;28;20193;-74
2022/05/21 04:14:14;;;;;;;3.65;1.42;;;15.70;99.90;;;;;;5111922;28;20213;-74
2022/05/21 04:16:41;;;;;;;1.52;1.20;;;15.50;99.90;;;;;;5111659;28;20777;-73
2022/05/21 04:19:07;;;;;;;2.83;1.30;;;15.60;99.90;;;;;;5111248;28;20236;-73
2022/05/21 04:21:32;;;;;;;3.03;1.40;;;15.60;99.90;;;;;;5111824;28;20698;-73
2022/05/21 04:23:58;;;;;;;3.85;1.73;;;15.90;99.90;;;;;;5093105;28;20224;-74
2022/05/21 04:26:23;;;;;;;2.60;1.20;;;16.10;99.90;;;;;;5112450;28;20239;-73
2022/05/21 04:28:49;;;;;;;4.57;1.63;;;17.90;99.90;;;;;;5091376;28;20180;-73
2022/05/21 04:31:14;;;;;;;2.47;1.30;;;18.40;99.90;;;;;;5112614;28;20217;-74
2022/05/21 04:33:40;;;;;;;2.05;1.15;;;18.90;99.90;;;;;;5112652;28;20308;-74
2022/05/21 04:36:17;;;;;;;2.13;1.33;;;20.30;99.90;;;;;;5094257;28;20198;-74
2022/05/21 04:38:43;;;;;;;3.63;1.30;;;20.30;99.90;;;;;;5121977;27;20705;-74
2022/05/21 04:41:08;;;;;;;1.75;1.00;;;21.10;99.90;;;;;;5095408;28;20254;-74
2022/05/21 04:43:34;;;;;;;2.53;1.38;;;21.20;99.90;;;;;;5094455;28;20285;-73
2022/05/21 04:45:59;;;;;;;5.85;1.40;;;22.10;99.90;;;;;;5114401;27;20264;-74
2022/05/21 04:48:25;;;;;;;4.53;1.30;;;21.50;99.90;;;;;;5131680;27;20204;-74
2022/05/21 04:50:51;;;;;;;3.03;1.30;;;19.30;99.90;;;;;;5113994;28;20205;-75
2022/05/21 04:53:16;;;;;;;2.65;1.58;;;19.00;99.90;;;;;;5132681;27;20815;-73
2022/05/21 04:55:42;;;;;;;5.35;1.52;;;18.30;99.90;;;;;;5133475;27;20197;-73
2022/05/21 04:58:08;;;;;;;3.25;1.65;;;18.30;99.90;;;;;;5131577;27;20220;-75
2022/05/21 05:00:34;;;;;;;4.07;2.42;;;18.80;99.90;;;;;;5132654;27;20547;-74
2022/05/21 05:03:00;;;;;;;3.20;1.73;;;17.60;99.90;;;;;;5132669;28;20205;-73
2022/05/21 05:05:25;;;;;;;1.80;1.30;;;17.30;99.90;;;;;;5132212;28;20742;-73
2022/05/21 05:07:51;;;;;;;2.67;1.42;;;18.40;99.90;;;;;;5113725;28;20169;-73
2022/05/21 05:10:17;;;;;;;3.20;1.50;;;17.50;99.90;;;;;;5131667;28;20193;-73
2022/05/21 05:12:43;;;;;;;3.45;1.65;;;18.40;99.90;;;;;;5112948;28;20558;-74
2022/05/21 05:15:09;;;;;;;2.08;1.52;;;17.80;99.90;;;;;;5104084;28;20221;-74
2022/05/21 05:17:34;;;;;;;5.53;1.70;;;18.20;99.90;;;;;;5128402;28;20241;-74
2022/05/21 05:20:01;;;;;;;1.83;1.40;;;18.40;99.90;;;;;;5131643;28;20172;-73
2022/05/21 05:22:27;;;;;;;3.35;1.58;;;19.40;99.90;;;;;;5131535;28;20707;-74
2022/05/21 05:24:52;;;;;;;4.32;1.63;;;20.50;99.90;;;;;;5131543;28;20213;-74
2022/05/21 05:27:18;;;;;;;2.00;1.60;;;20.80;99.90;;;;;;5133518;27;20205;-74
2022/05/21 05:29:43;;;;;;;4.65;1.80;;;21.50;99.90;;;;;;5116224;27;20207;-74
2022/05/21 05:32:09;;;;;;;3.75;1.88;;;22.70;99.90;;;;;;5136235;27;20187;-74
2022/05/21 05:34:36;;;;;;;1.98;1.52;;;21.90;99.90;;;;;;5117082;27;20217;-73
2022/05/21 05:37:02;;;;;;;6.28;1.70;;;22.70;99.90;;;;;;5135732;27;20208;-73
2022/05/21 05:39:29;;;;;;;2.47;1.38;;;22.10;99.90;;;;;;5134692;27;20254;-74
2022/05/21 05:41:54;;;;;;;4.15;2.13;;;21.70;99.90;;;;;;5135402;27;20207;-74
2022/05/21 05:44:21;;;;;;;5.07;1.60;;;20.60;99.90;;;;;;5116914;27;20223;-74
2022/05/21 05:46:47;;;;;;;5.40;1.65;;;20.10;99.90;;;;;;5103749;27;20174;-74
2022/05/21 05:49:13;;;;;;;3.20;1.80;;;20.10;99.90;;;;;;5134647;27;20223;-74
2022/05/21 05:51:38;;;;;;;2.60;1.52;;;20.40;99.90;;;;;;5134920;27;20673;-73
2022/05/21 05:54:04;;;;;;;5.15;3.03;;;22.00;99.90;;;;;;5135510;27;20197;-73
2022/05/21 05:56:30;;;;;;;2.92;2.35;;;21.30;99.90;;;;;;5135039;27;20196;-72
2022/05/21 06:01:40;;;;;;;4.80;1.90;;;21.80;99.90;;;;;;5134960;27;20224;-75
2022/05/21 06:04:05;;;;;;;6.10;1.73;;;21.70;99.90;;;;;;5133097;27;20680;-74
2022/05/21 06:06:31;;;;;;;2.60;1.75;;;21.90;99.90;;;;;;5135119;27;20204;-74
2022/05/21 06:08:57;;;;;;;2.88;1.40;;;23.00;99.90;;;;;;5134331;27;20189;-74
2022/05/21 06:11:23;;;;;;;4.03;2.00;;;22.20;99.90;;;;;;5116317;27;20172;-74
2022/05/21 06:13:49;;;;;;;2.97;1.52;;;20.50;99.90;;;;;;5135148;27;20204;-74
2022/05/21 06:16:15;;;;;;;3.67;1.60;;;20.40;99.90;;;;;;5134869;22;20255;-74
2022/05/21 06:18:41;;;;;;;2.45;1.58;;;19.90;99.90;;;;;;5095578;28;20237;-73
2022/05/21 06:21:08;;;;;;;5.30;1.83;;;19.00;99.90;;;;;;5105019;28;20548;-74
2022/05/21 06:23:34;;;;;;;4.03;1.92;;;18.50;99.90;;;;;;5136828;28;20237;-74
2022/05/21 06:26:00;;;;;;;3.85;1.92;;;17.80;99.90;;;;;;5119323;28;20212;-74
2022/05/21 06:28:26;;;;;;;6.03;1.92;;;17.50;99.90;;;;;;5099165;28;20206;-74
2022/05/21 06:30:52;;;;;;;3.80;1.67;;;17.60;99.90;;;;;;5115935;28;20209;-75
2022/05/21 06:33:21;;;;;;;3.95;1.67;;;17.40;99.90;;;;;;5114880;28;20662;-75
2022/05/21 06:35:49;;;;;;;4.07;1.90;;;17.40;99.90;;;;;;5106035;28;20201;-75
2022/05/21 06:38:15;;;;;;;2.50;1.65;;;17.20;99.90;;;;;;5114017;28;20204;-74
2022/05/21 06:40:41;;;;;;;4.20;2.00;;;17.00;99.90;;;;;;5114450;28;20745;-74
2022/05/21 06:43:07;;;;;;;3.65;1.90;;;17.00;99.90;;;;;;5095513;28;20343;-74
2022/05/21 06:45:34;;;;;;;4.65;2.28;;;16.80;99.90;;;;;;5107605;28;20218;-74
2022/05/21 06:48:04;;;;;;;4.40;1.98;;;16.50;99.90;;;;;;5113660;28;20255;-75
2022/05/21 06:50:30;;;;;;;2.90;2.10;;;16.40;99.90;;;;;;5095837;28;20205;-75
2022/05/21 06:52:56;;;;;;;5.55;2.10;;;16.40;99.90;;;;;;5096410;28;20251;-74
2022/05/21 06:55:21;;;;;;;5.55;2.03;;;16.50;99.90;;;;;;5095490;28;20213;-74
2022/05/21 06:57:48;;;;;;;2.92;1.83;;;17.10;99.90;;;;;;5094961;28;20194;-74
2022/05/21 07:00:14;;;;;;;3.60;1.70;;;17.30;99.90;;;;;;5113250;28;20209;-74
2022/05/21 07:02:40;;;;;;;4.25;1.63;;;17.50;99.90;;;;;;5113655;28;20589;-74
2022/05/21 07:07:50;;;;;;;4.20;1.75;;;18.20;99.90;;;;;;5113580;28;20259;-74
2022/05/21 07:10:24;;;;;;;2.00;1.35;;;17.70;99.90;;;;;;5113166;28;20209;-73
2022/05/21 07:12:49;;;;;;;3.00;1.42;;;17.70;99.90;;;;;;5094870;28;20571;-74
2022/05/21 07:15:16;;;;;;;5.25;1.50;;;18.20;99.90;;;;;;5090455;28;20217;-74
2022/05/21 07:17:43;;;;;;;7.10;1.48;;;18.80;99.90;;;;;;5094294;28;20216;-74
2022/05/21 07:20:12;;;;;;;2.92;1.23;;;18.80;99.90;;;;;;5095342;28;20257;-73
2022/05/21 07:22:42;;;;;;;2.08;1.17;;;18.50;99.90;;;;;;5094874;28;20215;-74
2022/05/21 07:25:08;;;;;;;3.90;1.20;;;18.40;99.90;;;;;;5113044;28;20649;-74
2022/05/21 07:27:34;;;;;;;3.50;1.75;;;19.00;99.90;;;;;;5112804;28;20214;-74
2022/05/21 07:29:59;;;;;;;4.43;2.47;;;19.30;99.90;;;;;;5112924;28;20266;-74
2022/05/21 07:32:28;;;;;;;2.50;1.35;;;18.90;99.90;;;;;;5113070;28;20166;-74
2022/05/21 07:34:59;;;;;;;3.67;1.88;;;18.50;99.90;;;;;;5095104;28;20246;-74
2022/05/21 07:37:24;;;;;;;3.72;2.08;;;18.30;99.90;;;;;;5112726;28;20257;-74
2022/05/21 07:39:50;;;;;;;3.90;1.92;;;20.40;99.90;;;;;;5094223;28;20205;-75
2022/05/21 07:42:16;;;;;;;2.05;1.80;;;22.00;99.90;;;;;;5112992;28;20569;-75
2022/05/21 07:44:42;;;;;;;3.03;1.15;;;23.60;99.90;;;;;;5111968;28;20674;-75
2022/05/21 07:47:08;;;;;;;3.22;1.50;;;25.20;99.90;;;;;;5107593;28;20185;-75
2022/05/21 07:49:33;;;;;;;2.55;1.42;;;25.60;99.90;;;;;;5092983;28;20281;-75
2022/05/21 07:51:59;;;;;;;3.78;1.55;;;25.80;99.90;;;;;;5112877;28;20335;-75
2022/05/21 07:54:25;;;;;;;4.65;1.63;;;25.30;99.90;;;;;;5093982;28;20692;-75
2022/05/21 07:56:51;;;;;;;6.55;1.65;;;25.30;99.90;;;;;;5112496;28;20647;-75
2022/05/21 07:59:16;;;;;;;3.83;1.90;;;25.60;99.90;;;;;;5111845;28;20240;-74
2022/05/21 08:01:43;;;;;;;7.80;4.55;;;25.60;99.90;;;;;;5113091;28;20266;-75
2022/05/21 08:04:08;;;;;;;4.30;2.30;;;25.50;99.90;;;;;;5112408;28;20221;-74
2022/05/21 08:06:34;;;;;;;4.13;1.83;;;23.70;99.90;;;;;;5112234;28;20577;-74
2022/05/21 08:09:01;;;;;;;3.17;1.50;;;23.50;99.90;;;;;;5111356;28;20193;-74
2022/05/21 08:11:27;;;;;;;4.57;1.60;;;23.90;99.90;;;;;;5094062;28;20201;-74
2022/05/21 08:13:53;;;;;;;3.10;1.65;;;25.00;99.90;;;;;;5113018;28;20224;-74
2022/05/21 08:16:18;;;;;;;3.58;1.60;;;24.50;99.90;;;;;;5087792;28;20213;-75
2022/05/21 08:18:44;;;;;;;3.85;1.58;;;25.00;99.90;;;;;;5111351;28;20242;-74
2022/05/21 08:21:09;;;;;;;2.33;1.35;;;24.50;99.90;;;;;;5112258;28;20197;-74
2022/05/21 08:29:04;;;;;;;3.20;1.48;;;22.70;99.90;;;;;;5112139;28;20180;-73
2022/05/21 08:31:30;;;;;;;3.50;1.90;;;22.60;99.90;;;;;;5110781;28;20715;-74
2022/05/21 08:33:55;;;;;;;6.22;2.83;;;22.50;99.90;;;;;;5112286;28;20285;-75
2022/05/21 08:36:21;;;;;;;3.88;1.33;;;22.50;99.90;;;;;;5113822;28;20716;-74
2022/05/21 08:38:47;;;;;;;4.70;2.15;;;22.30;99.90;;;;;;5113506;28;20193;-74
2022/05/21 08:41:23;;;;;;;2.92;1.60;;;21.90;99.90;;;;;;5112510;28;20314;-74
2022/05/21 08:44:12;;;;;;;5.05;2.05;;;22.00;99.90;;;;;;5112257;28;20204;-75
2022/05/21 08:46:52;;;;;;;4.38;1.67;;;21.80;99.90;;;;;;5087575;28;20214;-74
2022/05/21 08:49:43;;;;;;;3.90;1.70;;;20.90;99.90;;;;;;5111043;28;20197;-74
2022/05/21 08:52:20;;;;;;;6.60;2.05;;;20.30;99.90;;;;;;5088600;28;20229;-74
2022/05/21 08:54:48;;;;;;;6.15;2.38;;;19.20;99.90;;;;;;5111360;28;20209;-73
2022/05/21 08:57:25;;;;;;;5.03;2.33;;;18.70;99.90;;;;;;5093637;28;20255;-73
2022/05/21 08:59:57;;;;;;;5.15;2.25;;;18.30;99.90;;;;;;5103924;28;20205;-73
2022/05/21 09:02:30;;;;;;;6.32;2.45;;;17.70;99.90;;;;;;5110563;28;20178;-74
2022/05/21 09:04:55;;;;;;;5.47;2.40;;;17.50;99.90;;;;;;5111994;28;20697;-74
2022/05/21 09:07:24;;;;;;;3.92;1.77;;;17.50;99.90;;;;;;5111235;28;20251;-73
2022/05/21 09:10:20;;;;;;;4.57;2.28;;;17.90;99.90;;;;;;5110682;28;20201;-74
2022/05/21 09:12:57;;;;;;;4.40;2.38;;;18.10;99.90;;;;;;5093026;28;20202;-74
2022/05/21 09:18:14;;;;;;;3.30;2.13;;;19.00;99.90;;;;;;5058588;28;20621;-74
2022/05/21 09:21:00;;;;;;;5.20;2.60;;;19.40;99.90;;;;;;5111138;28;20201;-74
2022/05/21 09:23:44;;;;;;;6.45;2.88;;;19.00;99.90;;;;;;5111048;28;20166;-74
2022/05/21 09:26:09;;;;;;;4.30;2.75;;;18.60;99.90;;;;;;5111475;28;20201;-74
2022/05/21 09:28:38;;;;;;;3.65;2.67;;;18.20;99.90;;;;;;5110606;28;20205;-74
2022/05/21 09:31:05;;;;;;;3.55;2.35;;;18.10;99.90;;;;;;5111399;28;20232;-74
2022/05/21 09:33:37;;;;;;;4.47;2.45;;;17.60;99.90;;;;;;5111060;28;20347;-74
2022/05/21 09:36:04;;;;;;;3.13;2.50;;;17.60;99.90;;;;;;5111105;28;20215;-74
2022/05/21 09:38:32;;;;;;;4.30;2.55;;;17.70;99.90;;;;;;5092393;28;20236;-74
2022/05/21 09:41:16;;;;;;;4.32;2.42;;;17.60;99.90;;;;;;5112100;28;20178;-74
2022/05/21 09:46:37;;;;;;;4.72;3.00;;;17.50;99.90;;;;;;5104832;28;20898;-74
2022/05/21 09:49:25;;;;;;;4.50;3.53;;;17.60;99.90;;;;;;5092402;28;20205;-74
2022/05/21 09:51:57;;;;;;;4.88;3.15;;;17.90;99.90;;;;;;5111282;28;20205;-74
2022/05/21 09:54:36;;;;;;;12.65;6.43;;;18.40;99.90;;;;;;5092642;28;20197;-74
2022/05/21 09:57:02;;;;;;;7.65;4.40;;;18.60;99.90;;;;;;5092822;28;20205;-74
2022/05/21 09:59:30;;;;;;;7.18;4.15;;;18.60;99.90;;;;;;5110208;28;20181;-74
2022/05/21 10:02:13;;;;;;;5.60;3.85;;;18.30;99.90;;;;;;5093515;28;20202;-74
2022/05/21 10:04:45;;;;;;;6.22;4.18;;;18.40;99.90;;;;;;5092188;28;20301;-74
2022/05/21 10:13:12;;;;;;;7.82;5.00;;;20.30;99.90;;;;;;5107500;28;20600;-74
2022/05/21 10:15:43;;;;;;;6.68;5.53;;;19.80;99.90;;;;;;5108093;28;20210;-74
2022/05/21 10:18:35;;;;;;;6.97;5.40;;;19.20;99.90;;;;;;5114267;28;20200;-74
2022/05/21 10:21:28;;;;;;;6.35;4.55;;;19.00;99.90;;;;;;5090191;28;20715;-74
2022/05/21 10:24:01;;;;;;;6.78;6.00;;;20.10;99.90;;;;;;5114319;28;20208;-74
2022/05/21 10:26:50;;;;;;;6.93;5.60;;;20.00;99.90;;;;;;5114201;28;20200;-74
2022/05/21 10:29:35;;;;;;;8.77;5.85;;;20.40;99.90;;;;;;5113485;28;20170;-74
2022/05/21 10:32:27;;;;;;;7.85;5.00;;;21.00;99.90;;;;;;5091513;28;20218;-74
2022/05/21 10:34:58;;;;;;;6.97;5.45;;;20.90;99.90;;;;;;5112862;28;20261;-74
2022/05/21 10:37:49;;;;;;;6.10;5.38;;;20.70;99.90;;;;;;5099473;28;20259;-74
2022/05/21 10:40:46;;;;;;;6.05;5.03;;;20.20;99.90;;;;;;5113522;28;20198;-74
2022/05/21 10:43:32;;;;;;;6.82;5.38;;;20.60;99.90;;;;;;5101440;28;20270;-75
2022/05/21 10:46:26;;;;;;;6.60;4.32;;;20.50;99.90;;;;;;5107593;28;20285;-75
2022/05/21 10:49:24;;;;;;;5.90;4.85;;;20.50;99.90;;;;;;5105457;28;20205;-75
2022/05/21 10:52:01;;;;;;;6.03;4.32;;;20.40;99.90;;;;;;5113805;28;20282;-74
2022/05/21 10:54:52;;;;;;;7.70;4.22;;;20.20;99.90;;;;;;5113185;28;20577;-75
2022/05/21 10:57:32;;;;;;;6.38;4.07;;;19.90;99.90;;;;;;5113657;28;20554;-75
2022/05/21 11:00:16;;;;;;;6.28;4.38;;;19.40;99.90;;;;;;5106207;28;20233;-75
2022/05/21 11:03:20;;;;;;;7.55;4.70;;;19.00;99.90;;;;;;5113752;28;20208;-75
2022/05/21 11:05:51;;;;;;;8.25;4.13;;;18.60;99.90;;;;;;5113398;28;20224;-75
2022/05/21 11:08:37;;;;;;;7.53;4.45;;;18.90;99.90;;;;;;5112654;28;20177;-75
2022/05/21 11:11:29;;;;;;;5.85;4.13;;;19.10;99.90;;;;;;5108080;28;20235;-74
2022/05/21 11:14:08;;;;;;;5.78;4.30;;;19.10;99.90;;;;;;5088388;28;20566;-75
2022/05/21 11:16:41;;;;;;;5.15;3.83;;;19.50;99.90;;;;;;5106908;28;20213;-75
2022/05/21 11:19:20;;;;;;;8.85;4.38;;;20.10;99.90;;;;;;5094191;28;20206;-75
2022/05/21 11:21:58;;;;;;;6.88;3.47;;;20.30;99.90;;;;;;5104592;28;20622;-75
2022/05/21 11:24:45;;;;;;;7.75;3.70;;;19.70;99.90;;;;;;5112627;28;20286;-75
2022/05/21 11:27:25;;;;;;;12.60;3.92;;;19.60;99.90;;;;;;5112788;28;20194;-75
2022/05/21 11:30:00;;;;;;;8.20;4.05;;;19.20;99.90;;;;;;5086288;28;20201;-75
2022/05/21 11:38:41;;;;;;;7.65;4.68;;;19.60;99.90;;;;;;5111874;28;20639;-74
2022/05/21 11:41:25;;;;;;;5.47;3.92;;;20.00;99.90;;;;;;5113825;28;20168;-75
2022/05/21 11:43:53;;;;;;;7.00;4.53;;;20.40;99.90;;;;;;5115684;28;20216;-75
2022/05/21 11:46:20;;;;;;;5.97;4.30;;;20.50;99.90;;;;;;5090692;28;20217;-74
2022/05/21 11:48:46;;;;;;;7.18;4.25;;;20.70;99.90;;;;;;5111635;28;20202;-75
2022/05/21 11:51:17;;;;;;;6.63;4.25;;;20.70;99.90;;;;;;5112542;28;20205;-75
2022/05/21 11:53:45;;;;;;;6.63;3.78;;;20.50;99.90;;;;;;5112436;28;20244;-75
2022/05/21 11:56:12;;;;;;;6.85;3.92;;;20.50;99.90;;;;;;5113341;28;20189;-75
2022/05/21 11:58:59;;;;;;;7.13;4.50;;;20.30;99.90;;;;;;5111824;28;20339;-74
2022/05/21 12:01:50;;;;;;;6.13;4.30;;;19.60;99.90;;;;;;5112480;28;20258;-75
2022/05/21 12:04:38;;;;;;;6.65;4.30;;;19.20;99.90;;;;;;5112822;28;20250;-75
2022/05/21 12:07:05;;;;;;;8.02;3.90;;;19.10;99.90;;;;;;5106146;28;20224;-75
2022/05/21 12:09:31;;;;;;;9.57;4.15;;;19.00;99.90;;;;;;5111974;28;20263;-74
2022/05/21 12:12:18;;;;;;;7.75;4.38;;;18.80;99.90;;;;;;5112560;28;20621;-74
2022/05/21 12:17:45;;;;;;;5.32;4.45;;;18.70;99.90;;;;;;5110452;22;20696;-75
2022/05/21 12:20:17;;;;;;;6.30;3.88;;;18.90;99.90;;;;;;5091530;28;20184;-74
2022/05/21 12:22:50;;;;;;;5.90;3.88;;;18.80;99.90;;;;;;5091702;28;20206;-74
2022/05/21 12:25:44;;;;;;;7.22;4.03;;;18.80;99.90;;;;;;5073074;28;20225;-74
2022/05/21 12:28:11;;;;;;;5.88;3.75;;;18.90;99.90;;;;;;5090770;28;20620;-74
2022/05/21 12:30:37;;;;;;;4.78;3.50;;;18.80;99.90;;;;;;5091278;28;20213;-74
2022/05/21 12:33:02;;;;;;;6.65;3.80;;;18.70;99.90;;;;;;5073066;28;20199;-74
2022/05/21 12:35:55;;;;;;;8.82;4.30;;;18.70;99.90;;;;;;5072737;28;20202;-74
2022/05/21 12:38:30;;;;;;;5.53;3.80;;;18.80;99.90;;;;;;5090655;28;20253;-74
2022/05/21 12:41:14;;;;;;;4.80;3.30;;;18.90;99.90;;;;;;5091782;28;20725;-75
2022/05/21 12:43:44;;;;;;;5.30;3.75;;;19.00;99.90;;;;;;5091018;28;20210;-74
2022/05/21 12:46:27;;;;;;;8.25;3.60;;;19.10;99.90;;;;;;5084921;28;20238;-74
2022/05/21 12:48:56;;;;;;;5.40;3.10;;;19.50;99.90;;;;;;5090551;28;20206;-74
2022/05/21 12:51:36;;;;;;;6.22;3.75;;;19.80;99.90;;;;;;5073047;28;20256;-74
2022/05/21 12:54:05;;;;;;;4.95;2.72;;;19.90;99.90;;;;;;5091232;28;20208;-75
2022/05/21 12:56:34;;;;;;;2.85;2.35;;;20.30;99.90;;;;;;5072506;28;20683;-74
2022/05/21 12:59:18;;;;;;;8.15;2.70;;;20.20;99.90;;;;;;5072315;28;20174;-74
2022/05/21 13:02:01;;;;;;;3.38;2.45;;;20.00;99.90;;;;;;5072828;28;20241;-73
2022/05/21 13:04:32;;;;;;;5.38;2.47;;;19.90;99.90;;;;;;5090631;28;20702;-74
2022/05/21 13:07:12;;;;;;;4.70;2.30;;;20.20;99.90;;;;;;5092449;28;20203;-74
2022/05/21 13:09:48;;;;;;;4.07;2.50;;;20.30;99.90;;;;;;5072965;28;20205;-74
2022/05/21 13:12:15;;;;;;;6.35;2.80;;;20.30;99.90;;;;;;5076008;28;20205;-75
2022/05/21 13:14:42;;;;;;;5.10;2.75;;;20.40;99.90;;;;;;5093078;28;20585;-74
2022/05/21 13:17:29;;;;;;;6.70;2.97;;;20.60;99.90;;;;;;5086734;28;20637;-75
2022/05/21 13:20:15;;;;;;;4.78;2.55;;;20.40;99.90;;;;;;5072349;28;20292;-74
2022/05/21 13:23:00;;;;;;;6.25;2.67;;;20.20;99.90;;;;;;5090958;28;20633;-74
2022/05/21 13:25:26;;;;;;;5.28;2.58;;;20.10;99.90;;;;;;5090612;28;20247;-74
2022/05/21 13:27:57;;;;;;;4.75;2.30;;;20.30;99.90;;;;;;5072622;28;20755;-73
2022/05/21 13:30:34;;;;;;;5.85;2.30;;;20.30;99.90;;;;;;5073579;28;20221;-74
2022/05/21 13:33:02;;;;;;;5.05;1.50;;;20.60;99.90;;;;;;5072768;28;20246;-75
2022/05/21 13:35:37;;;;;;;5.65;1.58;;;20.20;99.90;;;;;;5090602;28;20750;-74